Aviation Digital Data Service (ADDS)

Output produced by METARs form (0339 UTC 19 August 2019)
found at http://www.aviationweather.gov/metar/data/
 
METAR text: GVAC 190300Z 06004KT 9999 SCT013 25/23 Q1013 NOSIG
Conditions at: GVAC (SAL ISL/AMILCAR , CV) observed 0300 UTC 19 August 2019
Temperature: 25.0°C (77°F)
Dewpoint: 23.0°C (73°F) [RH = 89%]
Pressure (altimeter): 29.91 inches Hg (1013.0 mb)
Winds: from the ENE (60 degrees) at 5 MPH (4 knots; 2.1 m/s)
Visibility: 6 or more miles (10+ km)
Ceiling: at least 12,000 feet AGL
Clouds: scattered clouds at 1300 feet AGL
Weather: no significant weather observed at this time

METAR text: GVAC 190200Z 05005KT 9999 SCT013 SCT090 26/23 Q1013 NOSIG
Conditions at: GVAC (SAL ISL/AMILCAR , CV) observed 0200 UTC 19 August 2019
Temperature: 26.0°C (79°F)
Dewpoint: 23.0°C (73°F) [RH = 84%]
Pressure (altimeter): 29.91 inches Hg (1013.0 mb)
Winds: from the NE (50 degrees) at 6 MPH (5 knots; 2.6 m/s)
Visibility: 6 or more miles (10+ km)
Ceiling: at least 12,000 feet AGL
Clouds: scattered clouds at 1300 feet AGL
scattered clouds at 9000 feet AGL
Weather: no significant weather observed at this time

METAR text: GVAC 190100Z 05005KT 9999 SCT013 BKN090 26/23 Q1014 NOSIG
Conditions at: GVAC (SAL ISL/AMILCAR , CV) observed 0100 UTC 19 August 2019
Temperature: 26.0°C (79°F)
Dewpoint: 23.0°C (73°F) [RH = 84%]
Pressure (altimeter): 29.94 inches Hg (1014.0 mb)
Winds: from the NE (50 degrees) at 6 MPH (5 knots; 2.6 m/s)
Visibility: 6 or more miles (10+ km)
Ceiling: 9000 feet AGL
Clouds: scattered clouds at 1300 feet AGL
broken clouds at 9000 feet AGL
Weather: no significant weather observed at this time

METAR text: GVAC 190000Z 05004KT 9999 SCT013 SCT100 BKN200 26/23 Q1015 NOSIG
Conditions at: GVAC (SAL ISL/AMILCAR , CV) observed 0000 UTC 19 August 2019
Temperature: 26.0°C (79°F)
Dewpoint: 23.0°C (73°F) [RH = 84%]
Pressure (altimeter): 29.97 inches Hg (1015.0 mb)
Winds: from the NE (50 degrees) at 5 MPH (4 knots; 2.1 m/s)
Visibility: 6 or more miles (10+ km)
Ceiling: 20000 feet AGL
Clouds: scattered clouds at 1300 feet AGL
scattered clouds at 10000 feet AGL
broken clouds at 20000 feet AGL
Weather: no significant weather observed at this time

METAR text: GVAC 182300Z 06004KT 9999 SCT013 BKN016 26/23 Q1014 NOSIG
Conditions at: GVAC (SAL ISL/AMILCAR , CV) observed 2300 UTC 18 August 2019
Temperature: 26.0°C (79°F)
Dewpoint: 23.0°C (73°F) [RH = 84%]
Pressure (altimeter): 29.94 inches Hg (1014.0 mb)
Winds: from the ENE (60 degrees) at 5 MPH (4 knots; 2.1 m/s)
Visibility: 6 or more miles (10+ km)
Ceiling: 1600 feet AGL
Clouds: scattered clouds at 1300 feet AGL
broken clouds at 1600 feet AGL
Weather: no significant weather observed at this time

METAR text: GVAC 182200Z 08006KT 9999 SCT013 SCT016 26/23 Q1014 NOSIG
Conditions at: GVAC (SAL ISL/AMILCAR , CV) observed 2200 UTC 18 August 2019
Temperature: 26.0°C (79°F)
Dewpoint: 23.0°C (73°F) [RH = 84%]
Pressure (altimeter): 29.94 inches Hg (1014.0 mb)
Winds: from the E (80 degrees) at 7 MPH (6 knots; 3.1 m/s)
Visibility: 6 or more miles (10+ km)
Ceiling: at least 12,000 feet AGL
Clouds: scattered clouds at 1300 feet AGL
scattered clouds at 1600 feet AGL
Weather: no significant weather observed at this time

METAR text: GVAC 182100Z 08007KT 9999 SCT013 BKN016 27/23 Q1013 NOSIG
Conditions at: GVAC (SAL ISL/AMILCAR , CV) observed 2100 UTC 18 August 2019
Temperature: 27.0°C (81°F)
Dewpoint: 23.0°C (73°F) [RH = 79%]
Pressure (altimeter): 29.91 inches Hg (1013.0 mb)
Winds: from the E (80 degrees) at 8 MPH (7 knots; 3.6 m/s)
Visibility: 6 or more miles (10+ km)
Ceiling: 1600 feet AGL
Clouds: scattered clouds at 1300 feet AGL
broken clouds at 1600 feet AGL
Weather: no significant weather observed at this time

METAR text: GVAC 182000Z 09007KT 9999 SCT013 BKN015 27/23 Q1012 NOSIG
Conditions at: GVAC (SAL ISL/AMILCAR , CV) observed 2000 UTC 18 August 2019
Temperature: 27.0°C (81°F)
Dewpoint: 23.0°C (73°F) [RH = 79%]
Pressure (altimeter): 29.88 inches Hg (1012.0 mb)
Winds: from the E (90 degrees) at 8 MPH (7 knots; 3.6 m/s)
Visibility: 6 or more miles (10+ km)
Ceiling: 1500 feet AGL
Clouds: scattered clouds at 1300 feet AGL
broken clouds at 1500 feet AGL
Weather: no significant weather observed at this time

METAR text: GVAC 181900Z 10008KT 9999 SCT013 BKN015 27/23 Q1012 NOSIG
Conditions at: GVAC (SAL ISL/AMILCAR , CV) observed 1900 UTC 18 August 2019
Temperature: 27.0°C (81°F)
Dewpoint: 23.0°C (73°F) [RH = 79%]
Pressure (altimeter): 29.88 inches Hg (1012.0 mb)
Winds: from the E (100 degrees) at 9 MPH (8 knots; 4.1 m/s)
Visibility: 6 or more miles (10+ km)
Ceiling: 1500 feet AGL
Clouds: scattered clouds at 1300 feet AGL
broken clouds at 1500 feet AGL
Weather: no significant weather observed at this time

METAR text: GVAC 181800Z 10005KT 9999 SCT013 BKN015 28/23 Q1011 NOSIG
Conditions at: GVAC (SAL ISL/AMILCAR , CV) observed 1800 UTC 18 August 2019
Temperature: 28.0°C (82°F)
Dewpoint: 23.0°C (73°F) [RH = 74%]
Pressure (altimeter): 29.85 inches Hg (1011.0 mb)
Winds: from the E (100 degrees) at 6 MPH (5 knots; 2.6 m/s)
Visibility: 6 or more miles (10+ km)
Ceiling: 1500 feet AGL
Clouds: scattered clouds at 1300 feet AGL
broken clouds at 1500 feet AGL
Weather: no significant weather observed at this time

METAR text: GVAC 181700Z 10006KT 9999 SCT013 BKN016 29/23 Q1011 NOSIG
Conditions at: GVAC (SAL ISL/AMILCAR , CV) observed 1700 UTC 18 August 2019
Temperature: 29.0°C (84°F)
Dewpoint: 23.0°C (73°F) [RH = 70%]
Pressure (altimeter): 29.85 inches Hg (1011.0 mb)
Winds: from the E (100 degrees) at 7 MPH (6 knots; 3.1 m/s)
Visibility: 6 or more miles (10+ km)
Ceiling: 1600 feet AGL
Clouds: scattered clouds at 1300 feet AGL
broken clouds at 1600 feet AGL
Weather: no significant weather observed at this time

METAR text: GVAC 181600Z 09008KT 9999 BKN013 30/23 Q1011 NOSIG
Conditions at: GVAC (SAL ISL/AMILCAR , CV) observed 1600 UTC 18 August 2019
Temperature: 30.0°C (86°F)
Dewpoint: 23.0°C (73°F) [RH = 66%]
Pressure (altimeter): 29.85 inches Hg (1011.0 mb)
Winds: from the E (90 degrees) at 9 MPH (8 knots; 4.1 m/s)
Visibility: 6 or more miles (10+ km)
Ceiling: 1300 feet AGL
Clouds: broken clouds at 1300 feet AGL
Weather: no significant weather observed at this time

METAR text: GVAC 181500Z 10007KT 9999 SCT013 31/23 Q1012 NOSIG
Conditions at: GVAC (SAL ISL/AMILCAR , CV) observed 1500 UTC 18 August 2019
Temperature: 31.0°C (88°F)
Dewpoint: 23.0°C (73°F) [RH = 63%]
Pressure (altimeter): 29.88 inches Hg (1012.0 mb)
Winds: from the E (100 degrees) at 8 MPH (7 knots; 3.6 m/s)
Visibility: 6 or more miles (10+ km)
Ceiling: at least 12,000 feet AGL
Clouds: scattered clouds at 1300 feet AGL
Weather: no significant weather observed at this time

METAR text: GVAC 181400Z 06008KT 9999 BKN013 31/23 Q1013 NOSIG
Conditions at: GVAC (SAL ISL/AMILCAR , CV) observed 1400 UTC 18 August 2019
Temperature: 31.0°C (88°F)
Dewpoint: 23.0°C (73°F) [RH = 63%]
Pressure (altimeter): 29.91 inches Hg (1013.0 mb)
Winds: from the ENE (60 degrees) at 9 MPH (8 knots; 4.1 m/s)
Visibility: 6 or more miles (10+ km)
Ceiling: 1300 feet AGL
Clouds: broken clouds at 1300 feet AGL
Weather: no significant weather observed at this time

METAR text: GVAC 181300Z 08010KT 060V120 9999 BKN013 31/23 Q1013 NOSIG
Conditions at: GVAC (SAL ISL/AMILCAR , CV) observed 1300 UTC 18 August 2019
Temperature: 31.0°C (88°F)
Dewpoint: 23.0°C (73°F) [RH = 63%]
Pressure (altimeter): 29.91 inches Hg (1013.0 mb)
Winds: from the E (80 degrees) at 12 MPH (10 knots; 5.1 m/s)
Visibility: 6 or more miles (10+ km)
Ceiling: 1300 feet AGL
Clouds: broken clouds at 1300 feet AGL
Weather: no significant weather observed at this time

METAR text: GVAC 181200Z 07009KT 040V110 9999 BKN013 SCT100 30/23 Q1014 NOSIG
Conditions at: GVAC (SAL ISL/AMILCAR , CV) observed 1200 UTC 18 August 2019
Temperature: 30.0°C (86°F)
Dewpoint: 23.0°C (73°F) [RH = 66%]
Pressure (altimeter): 29.94 inches Hg (1014.0 mb)
Winds: from the ENE (70 degrees) at 10 MPH (9 knots; 4.6 m/s)
Visibility: 6 or more miles (10+ km)
Ceiling: 1300 feet AGL
Clouds: broken clouds at 1300 feet AGL
scattered clouds at 10000 feet AGL
Weather: no significant weather observed at this time

METAR text: GVAC 181100Z 09009KT 9999 BKN013 30/23 Q1014 NOSIG
Conditions at: GVAC (SAL ISL/AMILCAR , CV) observed 1100 UTC 18 August 2019
Temperature: 30.0°C (86°F)
Dewpoint: 23.0°C (73°F) [RH = 66%]
Pressure (altimeter): 29.94 inches Hg (1014.0 mb)
Winds: from the E (90 degrees) at 10 MPH (9 knots; 4.6 m/s)
Visibility: 6 or more miles (10+ km)
Ceiling: 1300 feet AGL
Clouds: broken clouds at 1300 feet AGL
Weather: no significant weather observed at this time

METAR text: GVAC 181000Z 09009KT 9999 BKN013 28/23 Q1013 NOSIG
Conditions at: GVAC (SAL ISL/AMILCAR , CV) observed 1000 UTC 18 August 2019
Temperature: 28.0°C (82°F)
Dewpoint: 23.0°C (73°F) [RH = 74%]
Pressure (altimeter): 29.91 inches Hg (1013.0 mb)
Winds: from the E (90 degrees) at 10 MPH (9 knots; 4.6 m/s)
Visibility: 6 or more miles (10+ km)
Ceiling: 1300 feet AGL
Clouds: broken clouds at 1300 feet AGL
Weather: no significant weather observed at this time

METAR text: GVAC 180700Z 07006KT 9999 BKN014 25/23 Q1012 NOSIG
Conditions at: GVAC (SAL ISL/AMILCAR , CV) observed 0700 UTC 18 August 2019
Temperature: 25.0°C (77°F)
Dewpoint: 23.0°C (73°F) [RH = 89%]
Pressure (altimeter): 29.88 inches Hg (1012.0 mb)
Winds: from the ENE (70 degrees) at 7 MPH (6 knots; 3.1 m/s)
Visibility: 6 or more miles (10+ km)
Ceiling: 1400 feet AGL
Clouds: broken clouds at 1400 feet AGL
Weather: no significant weather observed at this time

METAR text: GVAC 180600Z 07006KT 9999 BKN014 26/23 Q1012 NOSIG
Conditions at: GVAC (SAL ISL/AMILCAR , CV) observed 0600 UTC 18 August 2019
Temperature: 26.0°C (79°F)
Dewpoint: 23.0°C (73°F) [RH = 84%]
Pressure (altimeter): 29.88 inches Hg (1012.0 mb)
Winds: from the ENE (70 degrees) at 7 MPH (6 knots; 3.1 m/s)
Visibility: 6 or more miles (10+ km)
Ceiling: 1400 feet AGL
Clouds: broken clouds at 1400 feet AGL
Weather: no significant weather observed at this time

METAR text: GVAC 180500Z 07007KT 9999 BKN014 26/23 Q1011 NOSIG
Conditions at: GVAC (SAL ISL/AMILCAR , CV) observed 0500 UTC 18 August 2019
Temperature: 26.0°C (79°F)
Dewpoint: 23.0°C (73°F) [RH = 84%]
Pressure (altimeter): 29.85 inches Hg (1011.0 mb)
Winds: from the ENE (70 degrees) at 8 MPH (7 knots; 3.6 m/s)
Visibility: 6 or more miles (10+ km)
Ceiling: 1400 feet AGL
Clouds: broken clouds at 1400 feet AGL
Weather: no significant weather observed at this time

METAR text: GVAC 180400Z 07007KT 9999 BKN014 BKN090 26/23 Q1011 NOSIG
Conditions at: GVAC (SAL ISL/AMILCAR , CV) observed 0400 UTC 18 August 2019
Temperature: 26.0°C (79°F)
Dewpoint: 23.0°C (73°F) [RH = 84%]
Pressure (altimeter): 29.85 inches Hg (1011.0 mb)
Winds: from the ENE (70 degrees) at 8 MPH (7 knots; 3.6 m/s)
Visibility: 6 or more miles (10+ km)
Ceiling: 1400 feet AGL
Clouds: broken clouds at 1400 feet AGL
broken clouds at 9000 feet AGL
Weather: no significant weather observed at this time

METAR text: GVAC 180300Z 09006KT 9999 SCT014 BKN090 25/22 Q1012 NOSIG
Conditions at: GVAC (SAL ISL/AMILCAR , CV) observed 0300 UTC 18 August 2019
Temperature: 25.0°C (77°F)
Dewpoint: 22.0°C (72°F) [RH = 83%]
Pressure (altimeter): 29.88 inches Hg (1012.0 mb)
Winds: from the E (90 degrees) at 7 MPH (6 knots; 3.1 m/s)
Visibility: 6 or more miles (10+ km)
Ceiling: 9000 feet AGL
Clouds: scattered clouds at 1400 feet AGL
broken clouds at 9000 feet AGL
Weather: no significant weather observed at this time

METAR text: GVAC 180200Z 08004KT 9999 FEW014 25/22 Q1012 NOSIG
Conditions at: GVAC (SAL ISL/AMILCAR , CV) observed 0200 UTC 18 August 2019
Temperature: 25.0°C (77°F)
Dewpoint: 22.0°C (72°F) [RH = 83%]
Pressure (altimeter): 29.88 inches Hg (1012.0 mb)
Winds: from the E (80 degrees) at 5 MPH (4 knots; 2.1 m/s)
Visibility: 6 or more miles (10+ km)
Ceiling: at least 12,000 feet AGL
Clouds: few clouds at 1400 feet AGL
Weather: no significant weather observed at this time

METAR text: GVAC 180100Z 08005KT 9999 FEW015 SCT090 25/22 Q1012 NOSIG
Conditions at: GVAC (SAL ISL/AMILCAR , CV) observed 0100 UTC 18 August 2019
Temperature: 25.0°C (77°F)
Dewpoint: 22.0°C (72°F) [RH = 83%]
Pressure (altimeter): 29.88 inches Hg (1012.0 mb)
Winds: from the E (80 degrees) at 6 MPH (5 knots; 2.6 m/s)
Visibility: 6 or more miles (10+ km)
Ceiling: at least 12,000 feet AGL
Clouds: few clouds at 1500 feet AGL
scattered clouds at 9000 feet AGL
Weather: no significant weather observed at this time

METAR text: GVAC 180000Z 08006KT 9999 SCT015 SCT090 26/22 Q1013 NOSIG
Conditions at: GVAC (SAL ISL/AMILCAR , CV) observed 0000 UTC 18 August 2019
Temperature: 26.0°C (79°F)
Dewpoint: 22.0°C (72°F) [RH = 79%]
Pressure (altimeter): 29.91 inches Hg (1013.0 mb)
Winds: from the E (80 degrees) at 7 MPH (6 knots; 3.1 m/s)
Visibility: 6 or more miles (10+ km)
Ceiling: at least 12,000 feet AGL
Clouds: scattered clouds at 1500 feet AGL
scattered clouds at 9000 feet AGL
Weather: no significant weather observed at this time

METAR text: GVAC 172300Z 08010KT 9999 SCT015 BKN090 26/22 Q1013 NOSIG
Conditions at: GVAC (SAL ISL/AMILCAR , CV) observed 2300 UTC 17 August 2019
Temperature: 26.0°C (79°F)
Dewpoint: 22.0°C (72°F) [RH = 79%]
Pressure (altimeter): 29.91 inches Hg (1013.0 mb)
Winds: from the E (80 degrees) at 12 MPH (10 knots; 5.1 m/s)
Visibility: 6 or more miles (10+ km)
Ceiling: 9000 feet AGL
Clouds: scattered clouds at 1500 feet AGL
broken clouds at 9000 feet AGL
Weather: no significant weather observed at this time

METAR text: GVAC 172200Z 08009KT 9999 SCT015 BKN090 26/22 Q1012 NOSIG
Conditions at: GVAC (SAL ISL/AMILCAR , CV) observed 2200 UTC 17 August 2019
Temperature: 26.0°C (79°F)
Dewpoint: 22.0°C (72°F) [RH = 79%]
Pressure (altimeter): 29.88 inches Hg (1012.0 mb)
Winds: from the E (80 degrees) at 10 MPH (9 knots; 4.6 m/s)
Visibility: 6 or more miles (10+ km)
Ceiling: 9000 feet AGL
Clouds: scattered clouds at 1500 feet AGL
broken clouds at 9000 feet AGL
Weather: no significant weather observed at this time

METAR text: GVAC 172100Z 08008KT 9999 SCT014 BKN016 26/22 Q1012 NOSIG
Conditions at: GVAC (SAL ISL/AMILCAR , CV) observed 2100 UTC 17 August 2019
Temperature: 26.0°C (79°F)
Dewpoint: 22.0°C (72°F) [RH = 79%]
Pressure (altimeter): 29.88 inches Hg (1012.0 mb)
Winds: from the E (80 degrees) at 9 MPH (8 knots; 4.1 m/s)
Visibility: 6 or more miles (10+ km)
Ceiling: 1600 feet AGL
Clouds: scattered clouds at 1400 feet AGL
broken clouds at 1600 feet AGL
Weather: no significant weather observed at this time

METAR text: GVAC 172000Z 09009KT 9999 SCT013 SCT015 26/22 Q1011 NOSIG
Conditions at: GVAC (SAL ISL/AMILCAR , CV) observed 2000 UTC 17 August 2019
Temperature: 26.0°C (79°F)
Dewpoint: 22.0°C (72°F) [RH = 79%]
Pressure (altimeter): 29.85 inches Hg (1011.0 mb)
Winds: from the E (90 degrees) at 10 MPH (9 knots; 4.6 m/s)
Visibility: 6 or more miles (10+ km)
Ceiling: at least 12,000 feet AGL
Clouds: scattered clouds at 1300 feet AGL
scattered clouds at 1500 feet AGL
Weather: no significant weather observed at this time

METAR text: GVAC 171900Z 09009KT 9999 BKN013 27/22 Q1011 NOSIG
Conditions at: GVAC (SAL ISL/AMILCAR , CV) observed 1900 UTC 17 August 2019
Temperature: 27.0°C (81°F)
Dewpoint: 22.0°C (72°F) [RH = 74%]
Pressure (altimeter): 29.85 inches Hg (1011.0 mb)
Winds: from the E (90 degrees) at 10 MPH (9 knots; 4.6 m/s)
Visibility: 6 or more miles (10+ km)
Ceiling: 1300 feet AGL
Clouds: broken clouds at 1300 feet AGL
Weather: no significant weather observed at this time

METAR text: GVAC 171800Z 08009KT 9999 BKN013 28/22 Q1011 NOSIG
Conditions at: GVAC (SAL ISL/AMILCAR , CV) observed 1800 UTC 17 August 2019
Temperature: 28.0°C (82°F)
Dewpoint: 22.0°C (72°F) [RH = 70%]
Pressure (altimeter): 29.85 inches Hg (1011.0 mb)
Winds: from the E (80 degrees) at 10 MPH (9 knots; 4.6 m/s)
Visibility: 6 or more miles (10+ km)
Ceiling: 1300 feet AGL
Clouds: broken clouds at 1300 feet AGL
Weather: no significant weather observed at this time

METAR text: GVAC 171700Z 06010KT 030V090 9999 BKN013 SCT200 29/22 Q1011 NOSIG
Conditions at: GVAC (SAL ISL/AMILCAR , CV) observed 1700 UTC 17 August 2019
Temperature: 29.0°C (84°F)
Dewpoint: 22.0°C (72°F) [RH = 66%]
Pressure (altimeter): 29.85 inches Hg (1011.0 mb)
Winds: from the ENE (60 degrees) at 12 MPH (10 knots; 5.1 m/s)
Visibility: 6 or more miles (10+ km)
Ceiling: 1300 feet AGL
Clouds: broken clouds at 1300 feet AGL
scattered clouds at 20000 feet AGL
Weather: no significant weather observed at this time

METAR text: GVAC 171600Z 08011KT 040V110 9999 BKN013 30/22 Q1011 NOSIG
Conditions at: GVAC (SAL ISL/AMILCAR , CV) observed 1600 UTC 17 August 2019
Temperature: 30.0°C (86°F)
Dewpoint: 22.0°C (72°F) [RH = 62%]
Pressure (altimeter): 29.85 inches Hg (1011.0 mb)
Winds: from the E (80 degrees) at 13 MPH (11 knots; 5.7 m/s)
Visibility: 6 or more miles (10+ km)
Ceiling: 1300 feet AGL
Clouds: broken clouds at 1300 feet AGL
Weather: no significant weather observed at this time

Forecast for: GVAC (SAL ISL/AMILCAR , CV)
Text: TAF GVAC 182300Z 1900/2006 VRB03KT 9999 SCT013 BKN016
Forecast period: 0000 to 0800 UTC 19 August 2019
Forecast type: FROM: standard forecast or significant change
Winds: variable direction winds at 3 MPH (3 knots; 1.5 m/s)
Visibility: 6 or more miles 10+ km)
Ceiling: 1600 feet AGL
Clouds: scattered clouds at 1300 feet AGL
broken clouds at 1600 feet AGL
Weather: no significant weather forecast for this period
Text: BECMG 1908/1910 33010KT BKN014
Forecast period: 0800 UTC 19 August 2019 to 0600 UTC 20 August 2019
Forecast type: BECOMING: Conditions expected to become as follows by 1000 UTC 19 August 2019
Winds: from the NNW (330 degrees) at 12 MPH (10 knots; 5.1 m/s)
Visibility: 6 or more miles 10+ km)
Ceiling: 1400 feet AGL
Clouds: broken clouds at 1400 feet AGL
Weather: no significant weather forecast for this period